Time;durP1;ratioP1;P1;durP2;ratioP2;P2;SDS_P1;SDS_P2;PMS_P1;PMS_P2;Temp;Humidity;BMP_temperature;BMP_pressure;BME280_temperature;BME280_humidity;BME280_pressure;Samples;Min_cycle;Max_cycle;Signal;HPM_P1;HPM_P2
2023/05/16 00:00:40;;;;;;;2.1;1.7;;;;;;;;;;;;;
2023/05/16 00:03:05;;;;;;;2.3;2.1;;;;;;;;;;;;;
2023/05/16 00:05:30;;;;;;;4.1;2.4;;;;;;;;;;;;;
2023/05/16 00:07:55;;;;;;;3.5;2.4;;;;;;;;;;;;;
2023/05/16 00:10:21;;;;;;;3.5;2.4;;;;;;;;;;;;;
2023/05/16 00:12:50;;;;;;;4.2;2.9;;;;;;;;;;;;;
2023/05/16 00:15:11;;;;;;;5.1;2.7;;;;;;;;;;;;;
2023/05/16 00:17:39;;;;;;;3.8;2.2;;;;;;;;;;;;;
2023/05/16 00:20:09;;;;;;;1.9;1.7;;;;;;;;;;;;;
2023/05/16 00:22:29;;;;;;;1.6;1.5;;;;;;;;;;;;;
2023/05/16 00:24:54;;;;;;;2.6;1.7;;;;;;;;;;;;;
2023/05/16 00:27:20;;;;;;;2.2;1.7;;;;;;;;;;;;;
2023/05/16 00:29:45;;;;;;;2.2;1.6;;;;;;;;;;;;;
2023/05/16 00:32:10;;;;;;;2;1.5;;;;;;;;;;;;;
2023/05/16 00:34:37;;;;;;;2.4;1.8;;;;;;;;;;;;;
2023/05/16 00:37:02;;;;;;;1.6;1.5;;;;;;;;;;;;;
2023/05/16 00:39:28;;;;;;;1.8;1.5;;;;;;;;;;;;;
2023/05/16 00:41:53;;;;;;;1.5;1.4;;;;;;;;;;;;;
2023/05/16 00:44:19;;;;;;;1.4;1.3;;;;;;;;;;;;;
2023/05/16 00:46:44;;;;;;;1.7;1.6;;;;;;;;;;;;;
2023/05/16 00:49:09;;;;;;;2;1.5;;;;;;;;;;;;;
2023/05/16 00:51:34;;;;;;;1.7;1.6;;;;;;;;;;;;;
2023/05/16 00:54:00;;;;;;;1.8;1.6;;;;;;;;;;;;;
2023/05/16 00:56:26;;;;;;;1.9;1.6;;;;;;;;;;;;;
2023/05/16 00:58:51;;;;;;;2;1.8;;;;;;;;;;;;;
2023/05/16 01:01:17;;;;;;;2;1.7;;;;;;;;;;;;;
2023/05/16 01:03:44;;;;;;;1.8;1.7;;;;;;;;;;;;;
2023/05/16 01:06:07;;;;;;;1.9;1.6;;;;;;;;;;;;;
2023/05/16 01:08:32;;;;;;;1.9;1.8;;;;;;;;;;;;;
2023/05/16 01:10:57;;;;;;;1.7;1.6;;;;;;;;;;;;;
2023/05/16 01:13:24;;;;;;;1.9;1.8;;;;;;;;;;;;;
2023/05/16 01:15:49;;;;;;;2;1.7;;;;;;;;;;;;;
2023/05/16 01:18:15;;;;;;;2.8;2.2;;;;;;;;;;;;;
2023/05/16 01:20:40;;;;;;;2.5;1.9;;;;;;;;;;;;;
2023/05/16 01:23:07;;;;;;;2.3;2;;;;;;;;;;;;;
2023/05/16 01:25:31;;;;;;;1.8;1.7;;;;;;;;;;;;;
2023/05/16 01:27:58;;;;;;;4;2.2;;;;;;;;;;;;;
2023/05/16 01:30:24;;;;;;;3;2.1;;;;;;;;;;;;;
2023/05/16 01:32:50;;;;;;;3.8;2.4;;;;;;;;;;;;;
2023/05/16 01:35:14;;;;;;;2.9;2.2;;;;;;;;;;;;;
2023/05/16 01:37:40;;;;;;;2;1.8;;;;;;;;;;;;;
2023/05/16 01:40:06;;;;;;;1.7;1.6;;;;;;;;;;;;;
2023/05/16 01:42:31;;;;;;;2.1;1.5;;;;;;;;;;;;;
2023/05/16 01:44:56;;;;;;;1.8;1.4;;;;;;;;;;;;;
2023/05/16 01:47:22;;;;;;;1.5;1.4;;;;;;;;;;;;;
2023/05/16 01:49:48;;;;;;;2.4;2.2;;;;;;;;;;;;;
2023/05/16 01:52:13;;;;;;;3.8;3.5;;;;;;;;;;;;;
2023/05/16 01:54:39;;;;;;;2.5;2.3;;;;;;;;;;;;;
2023/05/16 01:57:07;;;;;;;1.7;1.6;;;;;;;;;;;;;
2023/05/16 01:59:30;;;;;;;1.6;1.5;;;;;;;;;;;;;
2023/05/16 02:01:55;;;;;;;1.6;1.5;;;;;;;;;;;;;
2023/05/16 02:04:20;;;;;;;2.4;1.8;;;;;;;;;;;;;
2023/05/16 02:06:45;;;;;;;1.7;1.6;;;;;;;;;;;;;
2023/05/16 02:09:13;;;;;;;1.7;1.6;;;;;;;;;;;;;
2023/05/16 02:11:38;;;;;;;2.3;1.9;;;;;;;;;;;;;
2023/05/16 02:14:04;;;;;;;1.9;1.7;;;;;;;;;;;;;
2023/05/16 02:16:29;;;;;;;3.2;1.9;;;;;;;;;;;;;
2023/05/16 02:18:55;;;;;;;1.8;1.7;;;;;;;;;;;;;
2023/05/16 02:21:20;;;;;;;1.7;1.6;;;;;;;;;;;;;
2023/05/16 02:23:46;;;;;;;1.7;1.6;;;;;;;;;;;;;
2023/05/16 02:26:10;;;;;;;1.9;1.7;;;;;;;;;;;;;
2023/05/16 02:28:36;;;;;;;1.7;1.6;;;;;;;;;;;;;
2023/05/16 02:31:01;;;;;;;2;1.8;;;;;;;;;;;;;
2023/05/16 02:33:28;;;;;;;1.7;1.6;;;;;;;;;;;;;
2023/05/16 02:35:53;;;;;;;1.7;1.6;;;;;;;;;;;;;
2023/05/16 02:38:21;;;;;;;1.9;1.6;;;;;;;;;;;;;
2023/05/16 02:40:46;;;;;;;2;1.5;;;;;;;;;;;;;
2023/05/16 02:43:11;;;;;;;1.7;1.6;;;;;;;;;;;;;
2023/05/16 02:45:37;;;;;;;1.6;1.5;;;;;;;;;;;;;
2023/05/16 02:48:03;;;;;;;1.6;1.5;;;;;;;;;;;;;
2023/05/16 02:50:28;;;;;;;1.6;1.5;;;;;;;;;;;;;
2023/05/16 02:52:53;;;;;;;1.5;1.4;;;;;;;;;;;;;
2023/05/16 02:55:18;;;;;;;1.9;1.6;;;;;;;;;;;;;
2023/05/16 02:57:44;;;;;;;1.8;1.7;;;;;;;;;;;;;
2023/05/16 03:00:10;;;;;;;1.9;1.7;;;;;;;;;;;;;
2023/05/16 03:02:38;;;;;;;1.9;1.7;;;;;;;;;;;;;
2023/05/16 03:05:12;;;;;;;2.5;2.1;;;;;;;;;;;;;
2023/05/16 03:07:37;;;;;;;2.7;2.2;;;;;;;;;;;;;
2023/05/16 03:10:02;;;;;;;2.3;2;;;;;;;;;;;;;
2023/05/16 03:12:29;;;;;;;2;1.8;;;;;;;;;;;;;
2023/05/16 03:14:54;;;;;;;2;1.6;;;;;;;;;;;;;
2023/05/16 03:17:20;;;;;;;2.1;1.7;;;;;;;;;;;;;
2023/05/16 03:19:45;;;;;;;1.7;1.6;;;;;;;;;;;;;
2023/05/16 03:22:10;;;;;;;1.8;1.7;;;;;;;;;;;;;
2023/05/16 03:24:35;;;;;;;2;1.8;;;;;;;;;;;;;
2023/05/16 03:27:02;;;;;;;2.1;1.6;;;;;;;;;;;;;
2023/05/16 03:29:26;;;;;;;2.1;1.9;;;;;;;;;;;;;
2023/05/16 03:31:51;;;;;;;2.2;1.9;;;;;;;;;;;;;
2023/05/16 03:34:17;;;;;;;2.2;2;;;;;;;;;;;;;
2023/05/16 03:36:43;;;;;;;2.8;1.9;;;;;;;;;;;;;
2023/05/16 03:39:08;;;;;;;2.1;1.9;;;;;;;;;;;;;
2023/05/16 03:41:34;;;;;;;2.2;2;;;;;;;;;;;;;
2023/05/16 03:43:59;;;;;;;2.1;1.9;;;;;;;;;;;;;
2023/05/16 03:46:25;;;;;;;1.9;1.8;;;;;;;;;;;;;
2023/05/16 03:48:50;;;;;;;2.9;2.6;;;;;;;;;;;;;
2023/05/16 03:51:15;;;;;;;2.9;2.5;;;;;;;;;;;;;
2023/05/16 03:53:40;;;;;;;2.8;2.4;;;;;;;;;;;;;
2023/05/16 03:56:06;;;;;;;3.3;2.3;;;;;;;;;;;;;
2023/05/16 03:58:32;;;;;;;2.5;2.1;;;;;;;;;;;;;
2023/05/16 04:02:35;;;;;;;2.1;1.8;;;;;;;9.7;99.98535;933.1789;;;;
2023/05/16 04:05:00;;;;;;;2.5;1.7;;;;;;;9.62;99.47656;933.2445;;;;
2023/05/16 04:07:28;;;;;;;2.2;2;;;;;;;9.61;99.57715;933.2922;;;;
2023/05/16 04:09:57;;;;;;;2.1;1.9;;;;;;;9.51;99.59961;933.2771;;;;
2023/05/16 04:12:21;;;;;;;2.3;2.1;;;;;;;9.4;100;933.3056;;;;
2023/05/16 04:14:49;;;;;;;2.9;2.2;;;;;;;9.34;100;933.2465;;;;
2023/05/16 04:17:14;;;;;;;3;2.2;;;;;;;9.43;100;933.2377;;;;
2023/05/16 04:19:41;;;;;;;4.4;2.6;;;;;;;9.57;100;933.2289;;;;
2023/05/16 04:22:06;;;;;;;2.6;2.4;;;;;;;9.67;100;933.1813;;;;
2023/05/16 04:24:31;;;;;;;3.8;2.3;;;;;;;9.76;100;933.1649;;;;
2023/05/16 04:27:00;;;;;;;4.2;3.2;;;;;;;9.83;100;933.1607;;;;
2023/05/16 04:29:25;;;;;;;4.5;3.4;;;;;;;9.9;99.39063;933.1785;;;;
2023/05/16 04:31:53;;;;;;;3.7;3.1;;;;;;;9.97;98.97461;933.1819;;;;
2023/05/16 04:34:18;;;;;;;2.8;2.4;;;;;;;9.96;98.43848;933.1348;;;;
2023/05/16 04:36:46;;;;;;;2.5;2.3;;;;;;;9.99;98.27344;933.2964;;;;
2023/05/16 04:39:16;;;;;;;2.8;2.5;;;;;;;10;98.42383;933.3139;;;;
2023/05/16 04:41:41;;;;;;;3.1;2.7;;;;;;;10.06;98.2666;933.2755;;;;
2023/05/16 04:44:10;;;;;;;2.8;2.5;;;;;;;10.09;98.35254;933.3035;;;;
2023/05/16 04:46:39;;;;;;;3.3;2.5;;;;;;;10.14;97.91797;933.2073;;;;
2023/05/16 04:49:04;;;;;;;4.5;3.5;;;;;;;10.04;98.70801;933.1219;;;;
2023/05/16 04:51:32;;;;;;;5.2;3.5;;;;;;;10.01;99.16699;933.162;;;;
2023/05/16 04:53:57;;;;;;;13.5;8.9;;;;;;;10.08;99.14941;933.1633;;;;
2023/05/16 04:56:25;;;;;;;5.7;4.2;;;;;;;10.17;98.74805;933.2201;;;;
2023/05/16 04:58:49;;;;;;;3;2.4;;;;;;;10.15;98.36719;933.2559;;;;
2023/05/16 05:01:18;;;;;;;2.9;2.2;;;;;;;10.17;98.49707;933.275;;;;
2023/05/16 05:06:54;;;;;;;3.1;2.7;;;;;;;10.19;97.43066;933.3354;;;;
2023/05/16 05:09:19;;;;;;;2.8;2.4;;;;;;;10.18;97.96094;933.3458;;;;
2023/05/16 05:11:48;;;;;;;2.9;2.2;;;;;;;10.19;98.50098;933.2806;;;;
2023/05/16 05:14:13;;;;;;;2.3;2;;;;;;;10.09;98.2959;933.2715;;;;
2023/05/16 05:16:41;;;;;;;2.7;2.2;;;;;;;10.08;98.80469;933.3074;;;;
2023/05/16 05:19:07;;;;;;;2.5;2.2;;;;;;;10.18;98.90723;933.3044;;;;
2023/05/16 05:21:34;;;;;;;2.5;2.3;;;;;;;10.24;98.53418;933.3823;;;;
2023/05/16 05:23:59;;;;;;;3;2.3;;;;;;;10.24;98.1709;933.31;;;;
2023/05/16 05:26:27;;;;;;;2.3;2.1;;;;;;;10.23;97.80176;933.345;;;;
2023/05/16 05:28:51;;;;;;;2.3;2.1;;;;;;;10.13;97.5625;933.325;;;;
2023/05/16 05:31:18;;;;;;;2.5;2.3;;;;;;;10.17;98.10938;933.4015;;;;
2023/05/16 05:33:43;;;;;;;2.9;2.6;;;;;;;10.27;98.28027;933.3331;;;;
2023/05/16 05:36:11;;;;;;;3.6;2.8;;;;;;;10.32;98.62109;933.3658;;;;
2023/05/16 05:38:36;;;;;;;3.6;3.3;;;;;;;10.22;99.00879;933.4213;;;;
2023/05/16 05:41:05;;;;;;;3.9;3.6;;;;;;;10.17;99.76367;933.3824;;;;
2023/05/16 05:43:31;;;;;;;3.2;2.9;;;;;;;10.2;100;933.3625;;;;
2023/05/16 05:45:56;;;;;;;2.8;2.6;;;;;;;10.23;100;933.3641;;;;
2023/05/16 05:48:22;;;;;;;3.1;2.8;;;;;;;10.32;99.94727;933.2696;;;;
2023/05/16 05:50:48;;;;;;;2.7;2.5;;;;;;;10.33;99.29688;933.3325;;;;
2023/05/16 05:53:13;;;;;;;2.5;2.3;;;;;;;10.29;99.84961;933.2894;;;;
2023/05/16 05:55:40;;;;;;;2.7;2.5;;;;;;;10.22;100;933.2916;;;;
2023/05/16 05:58:04;;;;;;;2.5;2.2;;;;;;;10.26;100;933.2798;;;;
2023/05/16 06:00:29;;;;;;;2.8;2.3;;;;;;;10.35;99.67969;933.2712;;;;
2023/05/16 06:02:56;;;;;;;3.2;2.9;;;;;;;10.29;99.83789;933.248;;;;
2023/05/16 06:05:22;;;;;;;3.1;2.7;;;;;;;10.25;99.95313;933.24;;;;
2023/05/16 06:07:50;;;;;;;3.2;2.6;;;;;;;10.32;99.97949;933.2584;;;;
2023/05/16 06:10:15;;;;;;;2.7;2.5;;;;;;;10.41;99.86328;933.257;;;;
2023/05/16 06:12:45;;;;;;;3.6;2.7;;;;;;;10.44;99.56348;933.2224;;;;
2023/05/16 06:15:19;;;;;;;3;2.7;;;;;;;10.49;99.42773;933.259;;;;
2023/05/16 06:17:44;;;;;;;2.8;2.5;;;;;;;10.57;99.2041;933.2153;;;;
2023/05/16 06:20:13;;;;;;;3.2;2.4;;;;;;;10.6;98.88086;933.3531;;;;
2023/05/16 06:22:38;;;;;;;2.6;2.4;;;;;;;10.55;98.8916;933.3555;;;;
2023/05/16 06:25:12;;;;;;;2.4;2.2;;;;;;;10.48;99.53711;933.3036;;;;
2023/05/16 06:27:42;;;;;;;2.5;2.3;;;;;;;10.48;100;933.3617;;;;
2023/05/16 06:30:11;;;;;;;2.2;2;;;;;;;10.6;99.86133;933.3969;;;;
2023/05/16 06:32:36;;;;;;;2.6;2.4;;;;;;;10.63;99.66406;933.2889;;;;
2023/05/16 06:35:02;;;;;;;2.5;2.3;;;;;;;10.72;99.09082;933.2269;;;;
2023/05/16 06:37:27;;;;;;;2.3;2.1;;;;;;;10.74;98.80957;933.34;;;;
2023/05/16 06:39:55;;;;;;;2.9;2.5;;;;;;;10.7;98.87891;933.2977;;;;
2023/05/16 06:42:21;;;;;;;2.6;2.4;;;;;;;10.75;98.32031;933.3066;;;;
2023/05/16 06:44:48;;;;;;;3.1;2.3;;;;;;;10.77;97.86914;933.3058;;;;
2023/05/16 06:47:13;;;;;;;2.5;2.3;;;;;;;10.8;97.77051;933.2477;;;;
2023/05/16 06:49:39;;;;;;;2.6;2.4;;;;;;;10.84;97.58691;933.1811;;;;
2023/05/16 06:52:04;;;;;;;3.3;2.6;;;;;;;10.86;97.71875;933.2145;;;;
2023/05/16 06:54:32;;;;;;;2.6;2.4;;;;;;;10.92;97.80859;933.2264;;;;
2023/05/16 06:56:57;;;;;;;2.9;2.6;;;;;;;10.92;98.14258;933.1102;;;;
2023/05/16 06:59:25;;;;;;;3;2.7;;;;;;;10.97;98.38086;933.1165;;;;
2023/05/16 07:01:50;;;;;;;2.9;2.6;;;;;;;11.05;98.06543;933.1446;;;;
2023/05/16 07:04:18;;;;;;;4.7;2.9;;;;;;;11.11;97.83301;933.1565;;;;
2023/05/16 07:06:43;;;;;;;3.8;3.3;;;;;;;11.15;97.24414;933.1795;;;;
2023/05/16 07:09:11;;;;;;;5.1;3.8;;;;;;;11.13;96.90918;933.1764;;;;
2023/05/16 07:11:36;;;;;;;4.4;3.5;;;;;;;11.06;96.63184;933.1749;;;;
2023/05/16 07:14:03;;;;;;;5.6;3.6;;;;;;;11.1;96.86621;933.1916;;;;
2023/05/16 07:16:28;;;;;;;5.5;4.1;;;;;;;10.98;96.7168;933.1428;;;;
2023/05/16 07:18:55;;;;;;;4.9;3.7;;;;;;;10.84;96.87793;933.1508;;;;
2023/05/16 07:21:20;;;;;;;5.5;3.7;;;;;;;10.86;97.26172;933.1683;;;;
2023/05/16 07:23:46;;;;;;;4.7;3.7;;;;;;;10.9;97.82715;933.1451;;;;
2023/05/16 07:26:12;;;;;;;5.4;3.9;;;;;;;10.96;97.65918;933.1117;;;;
2023/05/16 07:28:38;;;;;;;4.6;3.8;;;;;;;10.95;97.48535;933.1778;;;;
2023/05/16 07:31:05;;;;;;;4;3.2;;;;;;;10.94;97.27734;933.2375;;;;
2023/05/16 07:33:32;;;;;;;3.9;3.1;;;;;;;10.91;97.25781;933.2328;;;;
2023/05/16 07:35:57;;;;;;;3.7;3.1;;;;;;;10.84;97.82617;933.2058;;;;
2023/05/16 07:38:23;;;;;;;4.9;3.1;;;;;;;10.88;97.83691;933.3251;;;;
2023/05/16 07:40:48;;;;;;;4;3.4;;;;;;;10.93;97.9502;933.2981;;;;
2023/05/16 07:43:18;;;;;;;4.8;3.8;;;;;;;10.97;98.25488;933.2631;;;;
2023/05/16 07:45:49;;;;;;;4.7;4.2;;;;;;;10.98;98.41895;933.3506;;;;
2023/05/16 07:48:14;;;;;;;9.8;3.8;;;;;;;11.03;98.31738;933.4003;;;;
2023/05/16 07:50:42;;;;;;;5.2;3.8;;;;;;;11.01;98.35645;933.3984;;;;
2023/05/16 07:53:07;;;;;;;4.4;3.6;;;;;;;11.04;98.52344;933.3717;;;;
2023/05/16 07:55:34;;;;;;;4.2;3.6;;;;;;;11.11;98.11621;933.3915;;;;
2023/05/16 07:57:59;;;;;;;4.6;3.4;;;;;;;11.14;97.57617;933.4274;;;;
2023/05/16 08:00:26;;;;;;;9;7.8;;;;;;;11.14;97.58691;933.4768;;;;
2023/05/16 08:02:51;;;;;;;5.9;4.8;;;;;;;11.21;97.69531;933.4842;;;;
2023/05/16 08:05:19;;;;;;;4.5;3.6;;;;;;;11.27;97.62695;933.516;;;;
2023/05/16 08:07:44;;;;;;;3.9;3.5;;;;;;;11.23;97.83594;933.4277;;;;
2023/05/16 08:10:14;;;;;;;4.2;3.4;;;;;;;11.27;97.67285;933.4889;;;;
2023/05/16 08:12:43;;;;;;;4.7;3.4;;;;;;;11.29;97.64258;933.418;;;;
2023/05/16 08:15:14;;;;;;;4.1;3.2;;;;;;;11.34;97.78125;933.3796;;;;
2023/05/16 08:17:39;;;;;;;6.1;4.1;;;;;;;11.27;97.76465;933.3486;;;;
2023/05/16 08:20:09;;;;;;;4.5;3.4;;;;;;;11.38;98.14355;933.2735;;;;
2023/05/16 08:22:34;;;;;;;6.9;4.6;;;;;;;11.49;97.56152;933.3494;;;;
2023/05/16 08:25:03;;;;;;;7.8;5.4;;;;;;;11.56;97.07422;933.3572;;;;
2023/05/16 08:27:28;;;;;;;6.1;3.8;;;;;;;11.61;96.78711;933.3175;;;;
2023/05/16 08:29:56;;;;;;;3.9;2.8;;;;;;;11.46;95.45996;933.2537;;;;
2023/05/16 08:32:22;;;;;;;3.5;2.5;;;;;;;11.36;96.14941;933.2664;;;;
2023/05/16 08:34:49;;;;;;;3.8;2.7;;;;;;;11.46;97.22363;933.2051;;;;
2023/05/16 08:37:15;;;;;;;2.8;2.5;;;;;;;11.51;96.44238;933.2759;;;;
2023/05/16 08:39:41;;;;;;;3.2;2.1;;;;;;;11.5;95.67578;933.2999;;;;
2023/05/16 08:42:06;;;;;;;2.6;2.3;;;;;;;11.48;95.52051;933.3071;;;;
2023/05/16 08:44:37;;;;;;;2.5;2.3;;;;;;;11.53;95.5;933.3198;;;;
2023/05/16 08:47:02;;;;;;;3.3;2.8;;;;;;;11.47;94.54785;933.2697;;;;
2023/05/16 08:49:28;;;;;;;3.6;2.9;;;;;;;11.46;94.67188;933.3271;;;;
2023/05/16 08:51:54;;;;;;;3;2.7;;;;;;;11.56;95.04883;933.2997;;;;
2023/05/16 08:54:19;;;;;;;4.8;4.4;;;;;;;11.57;95.61133;933.3315;;;;
2023/05/16 08:56:44;;;;;;;3.6;3.3;;;;;;;11.56;96.16797;933.3859;;;;
2023/05/16 08:59:10;;;;;;;3.3;2.9;;;;;;;11.45;96.37305;933.308;;;;
2023/05/16 09:01:34;;;;;;;2.9;2.5;;;;;;;11.46;97.50977;933.2952;;;;
2023/05/16 09:04:03;;;;;;;2.9;2.6;;;;;;;11.63;97.61523;933.3828;;;;
2023/05/16 09:06:28;;;;;;;4.6;3.6;;;;;;;11.81;97.42676;933.3953;;;;
2023/05/16 09:08:56;;;;;;;4.2;3.7;;;;;;;11.98;96.05859;933.3033;;;;
2023/05/16 09:11:21;;;;;;;4.4;3.8;;;;;;;12.11;95.16699;933.2319;;;;
2023/05/16 09:13:49;;;;;;;4.5;3.7;;;;;;;12.12;94.50684;933.2279;;;;
2023/05/16 09:16:13;;;;;;;5.3;3.8;;;;;;;11.8;94.81543;933.2414;;;;
2023/05/16 09:18:39;;;;;;;6.2;5.2;;;;;;;11.63;95.22266;933.2767;;;;
2023/05/16 09:21:04;;;;;;;7.3;6.3;;;;;;;11.7;95;933.2191;;;;
2023/05/16 09:23:29;;;;;;;5.1;4.4;;;;;;;11.71;94.9541;933.2861;;;;
2023/05/16 09:25:55;;;;;;;6;4.8;;;;;;;11.74;94.83398;933.3003;;;;
2023/05/16 09:28:21;;;;;;;7;5.6;;;;;;;11.8;94.44727;933.2263;;;;
2023/05/16 09:30:47;;;;;;;6.5;5.5;;;;;;;11.71;94.80762;933.2534;;;;
2023/05/16 09:33:13;;;;;;;8.3;6.6;;;;;;;11.89;94.83398;933.2366;;;;
2023/05/16 09:35:39;;;;;;;7.8;6.2;;;;;;;11.98;94.93555;933.2633;;;;
2023/05/16 09:38:07;;;;;;;8.3;6.1;;;;;;;12.03;95.31152;933.2841;;;;
2023/05/16 09:40:33;;;;;;;6.3;5.4;;;;;;;12.08;95.00293;933.3024;;;;
2023/05/16 09:43:01;;;;;;;6.9;5.8;;;;;;;12.03;92.58496;933.3089;;;;
2023/05/16 09:45:26;;;;;;;8.5;5.7;;;;;;;12.07;93.72754;933.3031;;;;
2023/05/16 09:47:53;;;;;;;7.7;6.2;;;;;;;12.13;94.16504;933.3244;;;;
2023/05/16 09:50:20;;;;;;;8.4;6.2;;;;;;;12.13;93.44141;933.3324;;;;
2023/05/16 09:52:48;;;;;;;8;5.9;;;;;;;12.17;93.71387;933.3848;;;;
2023/05/16 09:55:14;;;;;;;7.2;5.8;;;;;;;12.32;93.33496;933.3805;;;;
2023/05/16 09:57:43;;;;;;;7.1;5.6;;;;;;;12.42;92.77148;933.4105;;;;
2023/05/16 10:00:09;;;;;;;7.7;5.5;;;;;;;12.27;91.35156;933.3839;;;;
2023/05/16 10:02:35;;;;;;;6.7;5.4;;;;;;;12.32;91.75098;933.3245;;;;
2023/05/16 10:05:03;;;;;;;6.9;5.4;;;;;;;12.36;92.92969;933.2764;;;;
2023/05/16 10:07:28;;;;;;;6.6;5.3;;;;;;;12.3;91.81543;933.2839;;;;
2023/05/16 10:09:57;;;;;;;7;5.6;;;;;;;12.41;92.83594;933.2753;;;;
2023/05/16 10:12:24;;;;;;;7.4;5.9;;;;;;;12.34;92.59375;933.275;;;;
2023/05/16 10:14:51;;;;;;;7.1;5.7;;;;;;;12.54;91.79883;933.2877;;;;
2023/05/16 10:17:16;;;;;;;7.9;5.9;;;;;;;12.63;92.23047;933.3513;;;;
2023/05/16 10:19:41;;;;;;;6.7;6;;;;;;;12.67;91.75781;933.3326;;;;
2023/05/16 10:22:08;;;;;;;7.9;6.4;;;;;;;12.66;91.53809;933.3942;;;;
2023/05/16 10:24:33;;;;;;;7.6;6.4;;;;;;;12.74;91.1748;933.4064;;;;
2023/05/16 10:27:02;;;;;;;7.4;5.6;;;;;;;12.47;91.10645;933.3503;;;;
2023/05/16 10:29:25;;;;;;;7.6;6.2;;;;;;;12.49;91.1582;933.3375;;;;
2023/05/16 10:31:51;;;;;;;7.7;6.5;;;;;;;12.44;91.60547;933.3945;;;;
2023/05/16 10:34:18;;;;;;;7.3;6.1;;;;;;;12.47;91.48535;933.3423;;;;
2023/05/16 10:36:43;;;;;;;7.7;6;;;;;;;12.53;91.44043;933.2637;;;;
2023/05/16 10:39:10;;;;;;;8;6.4;;;;;;;12.51;91.81348;933.3317;;;;
2023/05/16 10:41:35;;;;;;;7.9;5.7;;;;;;;12.64;91.46387;933.3176;;;;
2023/05/16 10:44:04;;;;;;;7;5.6;;;;;;;12.64;91.76172;933.2849;;;;
2023/05/16 10:46:28;;;;;;;5.9;4.7;;;;;;;12.37;92.14063;933.2676;;;;
2023/05/16 10:48:56;;;;;;;5.5;4.9;;;;;;;12.22;93.54297;933.2444;;;;
2023/05/16 10:51:21;;;;;;;6.2;5.3;;;;;;;12.39;93.49902;933.2395;;;;
2023/05/16 10:53:48;;;;;;;6.9;6;;;;;;;12.2;93.59375;933.2634;;;;
2023/05/16 10:56:13;;;;;;;8.2;6.5;;;;;;;12.21;94.28613;933.2365;;;;
2023/05/16 10:58:41;;;;;;;7.8;6.2;;;;;;;12.11;92.6709;933.2742;;;;
2023/05/16 11:01:05;;;;;;;7.3;6.4;;;;;;;12.08;93.82324;933.2896;;;;
2023/05/16 11:03:34;;;;;;;7.7;6.6;;;;;;;12.24;93.08789;933.3106;;;;
2023/05/16 11:05:59;;;;;;;7.7;6.2;;;;;;;12.4;92.15918;933.2706;;;;
2023/05/16 11:08:26;;;;;;;8.6;7.6;;;;;;;12.39;92.21484;933.3177;;;;
2023/05/16 11:10:51;;;;;;;8.2;6.5;;;;;;;12.38;91.4541;933.3075;;;;
2023/05/16 11:13:19;;;;;;;7.8;6.4;;;;;;;12.19;92.36621;933.3864;;;;
2023/05/16 11:15:43;;;;;;;8;6.6;;;;;;;12.3;92.64063;933.3789;;;;
2023/05/16 11:18:08;;;;;;;7.4;6.4;;;;;;;12.32;92.16309;933.402;;;;
2023/05/16 11:20:33;;;;;;;7.8;6.3;;;;;;;12.44;92.67188;933.3441;;;;
2023/05/16 11:22:58;;;;;;;9.1;7.3;;;;;;;12.54;92.47754;933.2477;;;;
2023/05/16 11:25:24;;;;;;;17.9;11.3;;;;;;;12.55;92.84375;933.3435;;;;
2023/05/16 11:27:50;;;;;;;10.9;8.1;;;;;;;12.72;93.63965;933.2963;;;;
2023/05/16 11:30:18;;;;;;;8.9;6.7;;;;;;;12.91;92.65723;933.32;;;;
2023/05/16 11:32:42;;;;;;;10.3;8.1;;;;;;;12.92;93.55469;933.2872;;;;
2023/05/16 11:35:08;;;;;;;7.9;6.7;;;;;;;13.06;93.79102;933.2416;;;;
2023/05/16 11:37:32;;;;;;;7.4;6.6;;;;;;;13.34;91.58691;933.2734;;;;
2023/05/16 11:39:59;;;;;;;7.9;6.6;;;;;;;13.58;91.16895;933.252;;;;
2023/05/16 11:42:25;;;;;;;7.4;6.5;;;;;;;13.61;89.39258;933.283;;;;
2023/05/16 11:44:49;;;;;;;8.3;6.9;;;;;;;13.66;87.70117;933.2498;;;;
2023/05/16 11:47:18;;;;;;;8;6.9;;;;;;;13.67;87.26465;933.2355;;;;
2023/05/16 11:50:52;;;;;;;9;7;;;;;;;13.63;87.3125;933.2343;;;;
2023/05/16 11:53:17;;;;;;;7.8;6.9;;;;;;;13.45;88.33594;933.2086;;;;
2023/05/16 11:55:43;;;;;;;8.8;6.8;;;;;;;13.49;89.02344;933.1889;;;;
2023/05/16 11:58:11;;;;;;;9.8;7;;;;;;;13.43;88.93945;933.1664;;;;
2023/05/16 12:00:35;;;;;;;8.8;7.4;;;;;;;13.49;88.52734;933.1578;;;;
2023/05/16 12:03:01;;;;;;;9.7;7.9;;;;;;;13.51;88.75098;933.2144;;;;
2023/05/16 12:05:31;;;;;;;9.1;7.2;;;;;;;13.51;88.70508;933.1887;;;;
2023/05/16 12:07:56;;;;;;;8.5;7.5;;;;;;;13.51;89.03809;933.192;;;;
2023/05/16 12:10:20;;;;;;;9.1;7.6;;;;;;;13.29;90.19824;933.2354;;;;
2023/05/16 12:12:46;;;;;;;9;7.7;;;;;;;13.42;89.07715;933.1537;;;;
2023/05/16 12:15:11;;;;;;;8.3;7;;;;;;;13.38;88.43652;933.1642;;;;
2023/05/16 12:17:38;;;;;;;9.2;7.8;;;;;;;13.28;88.97852;933.2499;;;;
2023/05/16 12:20:04;;;;;;;8.1;7.3;;;;;;;13.45;88.86426;933.1854;;;;
2023/05/16 12:22:33;;;;;;;7.5;6.7;;;;;;;13.35;88.20117;933.1805;;;;
2023/05/16 12:25:02;;;;;;;11.9;7.7;;;;;;;13.38;89.22949;933.1994;;;;
2023/05/16 12:27:28;;;;;;;8.2;7.1;;;;;;;13.24;89.41992;933.235;;;;
2023/05/16 12:29:53;;;;;;;8.8;7.6;;;;;;;13.28;89.77148;933.1844;;;;
2023/05/16 12:32:19;;;;;;;8.2;7.3;;;;;;;13.3;89.05176;933.1378;;;;
2023/05/16 12:34:44;;;;;;;8.3;6.9;;;;;;;13.34;88.78516;933.1174;;;;
2023/05/16 12:37:10;;;;;;;8.8;7.6;;;;;;;13.37;89.25195;933.053;;;;
2023/05/16 12:39:35;;;;;;;8.1;7.3;;;;;;;13.47;89.67285;933.0948;;;;
2023/05/16 12:42:03;;;;;;;8.3;6.9;;;;;;;13.31;89.30664;933.0737;;;;
2023/05/16 12:44:28;;;;;;;8.5;7.4;;;;;;;13.34;89.50684;933.0159;;;;
2023/05/16 12:46:57;;;;;;;8.7;7.7;;;;;;;13.21;89.44629;933.068;;;;
2023/05/16 12:49:22;;;;;;;9.5;8.3;;;;;;;13.31;89.3291;933.0289;;;;
2023/05/16 12:51:49;;;;;;;8.9;7.8;;;;;;;13.27;89.56348;933.0669;;;;
2023/05/16 12:54:14;;;;;;;7.7;6.9;;;;;;;13.38;89.09082;933.033;;;;
2023/05/16 12:56:43;;;;;;;8.3;6.8;;;;;;;13.46;88.6709;933.0493;;;;
2023/05/16 12:59:07;;;;;;;8.4;7.4;;;;;;;13.56;88.25586;932.9939;;;;
2023/05/16 13:01:34;;;;;;;7.8;7;;;;;;;13.55;86.91895;933.0236;;;;
2023/05/16 13:03:59;;;;;;;8;6.9;;;;;;;13.67;87.28711;933.053;;;;
2023/05/16 13:06:25;;;;;;;8.6;7.5;;;;;;;13.55;87.87305;933.0172;;;;
2023/05/16 13:08:50;;;;;;;8;7.2;;;;;;;13.69;87.31543;933.0151;;;;
2023/05/16 13:11:16;;;;;;;8.6;7.3;;;;;;;13.7;87.21387;932.9846;;;;
2023/05/16 13:13:41;;;;;;;9;7.4;;;;;;;13.87;86.02734;932.951;;;;
2023/05/16 13:16:06;;;;;;;7.4;6.6;;;;;;;14;85.63965;932.9855;;;;
2023/05/16 13:18:33;;;;;;;8;7.1;;;;;;;13.88;85.4668;932.97;;;;
2023/05/16 13:20:57;;;;;;;7.1;6.4;;;;;;;13.84;85.29688;932.9409;;;;
2023/05/16 13:23:22;;;;;;;7.5;6.7;;;;;;;13.91;85.14941;933.0186;;;;
2023/05/16 13:25:47;;;;;;;7.2;6;;;;;;;13.58;85.70508;933.0353;;;;
2023/05/16 13:28:14;;;;;;;7.2;6.1;;;;;;;13.1;87.42773;933.0581;;;;
2023/05/16 13:30:40;;;;;;;7.7;6;;;;;;;12.66;90.36621;933.0588;;;;
2023/05/16 13:33:09;;;;;;;8;6.3;;;;;;;12.74;89.99414;933.0661;;;;
2023/05/16 13:35:34;;;;;;;6.7;6;;;;;;;12.75;90.22559;933.0684;;;;
2023/05/16 13:38:01;;;;;;;7.1;6.3;;;;;;;12.64;90.94727;933.0804;;;;
2023/05/16 13:40:26;;;;;;;7.4;6.6;;;;;;;12.74;91.13086;933.0765;;;;
2023/05/16 13:42:55;;;;;;;10.2;7.2;;;;;;;12.74;91.50781;933.0861;;;;
2023/05/16 13:45:23;;;;;;;7.7;6.8;;;;;;;12.82;91.09082;933.0154;;;;
2023/05/16 13:47:51;;;;;;;7.7;6.9;;;;;;;12.9;90.8418;933.0676;;;;
2023/05/16 13:50:21;;;;;;;7.9;6.5;;;;;;;12.69;91.53223;933.0984;;;;
2023/05/16 13:52:46;;;;;;;8.4;7.2;;;;;;;12.69;92.02637;933.0465;;;;
2023/05/16 13:55:14;;;;;;;8.1;7.2;;;;;;;12.7;92.28027;933.0176;;;;
2023/05/16 13:57:39;;;;;;;8.4;7;;;;;;;12.7;92.57813;933.0664;;;;
2023/05/16 14:00:11;;;;;;;7.6;6.8;;;;;;;12.59;92.78516;933.2242;;;;
2023/05/16 14:02:30;;;;;;;7.9;7.1;;;;;;;12.59;93.20703;933.2274;;;;
2023/05/16 14:04:56;;;;;;;9.4;7.5;;;;;;;12.6;93.09668;933.2648;;;;
2023/05/16 14:07:21;;;;;;;10.8;7.9;;;;;;;12.55;93.02734;933.2133;;;;
2023/05/16 14:09:49;;;;;;;7.9;6.9;;;;;;;12.41;94.13574;933.2413;;;;
2023/05/16 14:12:14;;;;;;;10;7.6;;;;;;;12.5;94.10742;933.2536;;;;
2023/05/16 14:14:42;;;;;;;8.6;7.3;;;;;;;12.54;94.11523;933.3403;;;;
2023/05/16 14:17:08;;;;;;;8.9;7.6;;;;;;;12.63;93.66504;933.2866;;;;
2023/05/16 14:19:36;;;;;;;9.2;7.9;;;;;;;12.56;93.74121;933.3563;;;;
2023/05/16 14:22:01;;;;;;;9.8;8.2;;;;;;;12.47;93.97559;933.3287;;;;
2023/05/16 14:24:30;;;;;;;9.5;8.5;;;;;;;12.44;94.31152;933.3641;;;;
2023/05/16 14:26:55;;;;;;;9.6;8.1;;;;;;;12.47;94.23926;933.3607;;;;
2023/05/16 14:29:23;;;;;;;10.5;8.9;;;;;;;12.08;96.04395;933.4716;;;;
2023/05/16 14:31:47;;;;;;;10;8.9;;;;;;;12;96.91895;933.4332;;;;
2023/05/16 14:34:17;;;;;;;10.3;8.8;;;;;;;11.95;97.28906;933.5195;;;;
2023/05/16 14:36:47;;;;;;;10.3;8.9;;;;;;;12.02;97.65918;933.4478;;;;
2023/05/16 14:39:19;;;;;;;9.6;8.5;;;;;;;12.14;97.25;933.4345;;;;
2023/05/16 14:41:48;;;;;;;10.8;8.5;;;;;;;12.24;96.5498;933.416;;;;
2023/05/16 14:44:13;;;;;;;8.7;7.3;;;;;;;12.38;96.20117;933.4113;;;;
2023/05/16 14:46:38;;;;;;;7.1;6.4;;;;;;;12.24;95.30078;933.4048;;;;
2023/05/16 14:49:07;;;;;;;6.6;5.7;;;;;;;11.91;95.70801;933.4511;;;;
2023/05/16 14:51:32;;;;;;;5.3;4.8;;;;;;;11.86;97.19824;933.452;;;;
2023/05/16 14:53:58;;;;;;;4.9;4.4;;;;;;;11.82;96.70703;933.4347;;;;
2023/05/16 14:56:25;;;;;;;4.8;4.3;;;;;;;11.78;96.75684;933.5737;;;;
2023/05/16 14:58:48;;;;;;;4.6;4.1;;;;;;;11.65;97.08301;933.5781;;;;
2023/05/16 15:01:17;;;;;;;5.9;4.4;;;;;;;11.75;97.12793;933.6193;;;;
2023/05/16 15:03:42;;;;;;;5.5;5;;;;;;;11.87;96.36621;933.6578;;;;
2023/05/16 15:06:10;;;;;;;5.8;4.9;;;;;;;12.04;95.45117;933.6576;;;;
2023/05/16 15:08:37;;;;;;;6;5.1;;;;;;;12.14;95.12988;933.6468;;;;
2023/05/16 15:11:00;;;;;;;4.9;4.4;;;;;;;12.18;94.87598;933.6866;;;;
2023/05/16 15:13:27;;;;;;;5.7;5.2;;;;;;;12.15;94.98438;933.6364;;;;
2023/05/16 15:15:52;;;;;;;6.5;5.9;;;;;;;12.22;95.08984;933.6244;;;;
2023/05/16 15:18:20;;;;;;;7.7;6.3;;;;;;;12.3;95.43848;933.5993;;;;
2023/05/16 15:20:45;;;;;;;7.7;6.2;;;;;;;12.35;95.3584;933.6118;;;;
2023/05/16 15:23:13;;;;;;;6.1;5.3;;;;;;;12.4;95.20801;933.6307;;;;
2023/05/16 15:25:37;;;;;;;6.2;5.2;;;;;;;12.4;95.01465;933.6347;;;;
2023/05/16 15:28:04;;;;;;;6.2;5.1;;;;;;;12.31;94.04395;933.6783;;;;
2023/05/16 15:30:29;;;;;;;8.1;5.4;;;;;;;12.26;93.60742;933.6785;;;;
2023/05/16 15:32:56;;;;;;;6.5;5.7;;;;;;;12.22;94.7002;933.6236;;;;
2023/05/16 15:35:21;;;;;;;6.7;6;;;;;;;12.25;95.75098;933.6514;;;;
2023/05/16 15:37:49;;;;;;;6.5;5.5;;;;;;;12.32;95.4668;933.7029;;;;
2023/05/16 15:40:17;;;;;;;6.9;5.3;;;;;;;12.36;94.90137;933.7403;;;;